sensor_id;sensor_type;location;lat;lon;timestamp;P1;durP1;ratioP1;P2;durP2;ratioP2
67063;SDS011;58476;48.072;11.970;2024-03-02T00:00:06;6.00;;;3.50;;
67063;SDS011;58476;48.072;11.970;2024-03-02T00:02:40;5.15;;;3.05;;
67063;SDS011;58476;48.072;11.970;2024-03-02T00:05:16;6.00;;;3.10;;
67063;SDS011;58476;48.072;11.970;2024-03-02T00:07:47;7.75;;;3.22;;
67063;SDS011;58476;48.072;11.970;2024-03-02T00:10:20;5.90;;;3.33;;
67063;SDS011;58476;48.072;11.970;2024-03-02T00:12:47;5.03;;;2.95;;
67063;SDS011;58476;48.072;11.970;2024-03-02T00:15:39;5.80;;;3.10;;
67063;SDS011;58476;48.072;11.970;2024-03-02T00:18:12;5.68;;;3.17;;
67063;SDS011;58476;48.072;11.970;2024-03-02T00:20:44;5.50;;;2.70;;
67063;SDS011;58476;48.072;11.970;2024-03-02T00:23:10;4.97;;;2.92;;
67063;SDS011;58476;48.072;11.970;2024-03-02T00:25:46;5.40;;;3.08;;
67063;SDS011;58476;48.072;11.970;2024-03-02T00:33:14;3.90;;;2.70;;
67063;SDS011;58476;48.072;11.970;2024-03-02T00:35:39;4.72;;;3.20;;
67063;SDS011;58476;48.072;11.970;2024-03-02T00:38:05;4.70;;;2.80;;
67063;SDS011;58476;48.072;11.970;2024-03-02T00:40:30;5.50;;;3.20;;
67063;SDS011;58476;48.072;11.970;2024-03-02T00:42:56;5.53;;;3.30;;
67063;SDS011;58476;48.072;11.970;2024-03-02T00:45:21;4.93;;;2.92;;
67063;SDS011;58476;48.072;11.970;2024-03-02T00:47:46;4.55;;;3.10;;
67063;SDS011;58476;48.072;11.970;2024-03-02T00:50:12;4.90;;;3.08;;
67063;SDS011;58476;48.072;11.970;2024-03-02T00:52:38;6.90;;;3.40;;
67063;SDS011;58476;48.072;11.970;2024-03-02T00:55:04;4.22;;;2.83;;
67063;SDS011;58476;48.072;11.970;2024-03-02T00:57:29;5.20;;;3.20;;
67063;SDS011;58476;48.072;11.970;2024-03-02T00:59:58;5.10;;;3.05;;
67063;SDS011;58476;48.072;11.970;2024-03-02T01:02:24;4.32;;;3.15;;
67063;SDS011;58476;48.072;11.970;2024-03-02T01:04:49;5.13;;;3.40;;
67063;SDS011;58476;48.072;11.970;2024-03-02T01:07:14;5.60;;;3.22;;
67063;SDS011;58476;48.072;11.970;2024-03-02T01:09:40;5.00;;;2.83;;
67063;SDS011;58476;48.072;11.970;2024-03-02T01:12:05;5.25;;;3.20;;
67063;SDS011;58476;48.072;11.970;2024-03-02T01:14:31;5.15;;;3.13;;
67063;SDS011;58476;48.072;11.970;2024-03-02T01:16:56;4.75;;;3.08;;
67063;SDS011;58476;48.072;11.970;2024-03-02T01:19:21;5.38;;;3.10;;
67063;SDS011;58476;48.072;11.970;2024-03-02T01:21:46;6.00;;;3.30;;
67063;SDS011;58476;48.072;11.970;2024-03-02T01:24:12;3.95;;;2.90;;
67063;SDS011;58476;48.072;11.970;2024-03-02T01:26:37;4.40;;;2.88;;
67063;SDS011;58476;48.072;11.970;2024-03-02T01:29:02;4.38;;;3.08;;
67063;SDS011;58476;48.072;11.970;2024-03-02T01:31:28;4.63;;;2.88;;
67063;SDS011;58476;48.072;11.970;2024-03-02T01:33:53;5.70;;;2.92;;
67063;SDS011;58476;48.072;11.970;2024-03-02T01:36:18;4.28;;;2.95;;
67063;SDS011;58476;48.072;11.970;2024-03-02T01:38:43;5.30;;;3.20;;
67063;SDS011;58476;48.072;11.970;2024-03-02T01:41:09;5.10;;;3.28;;
67063;SDS011;58476;48.072;11.970;2024-03-02T01:43:34;4.63;;;3.15;;
67063;SDS011;58476;48.072;11.970;2024-03-02T01:45:59;4.78;;;3.10;;
67063;SDS011;58476;48.072;11.970;2024-03-02T01:48:25;4.93;;;2.83;;
67063;SDS011;58476;48.072;11.970;2024-03-02T01:50:50;4.38;;;2.75;;
67063;SDS011;58476;48.072;11.970;2024-03-02T01:53:15;5.07;;;3.30;;
67063;SDS011;58476;48.072;11.970;2024-03-02T01:55:41;6.10;;;3.05;;
67063;SDS011;58476;48.072;11.970;2024-03-02T01:58:06;5.07;;;3.00;;
67063;SDS011;58476;48.072;11.970;2024-03-02T02:00:32;4.93;;;3.35;;
67063;SDS011;58476;48.072;11.970;2024-03-02T02:02:57;4.97;;;3.17;;
67063;SDS011;58476;48.072;11.970;2024-03-02T02:05:22;5.47;;;3.38;;
67063;SDS011;58476;48.072;11.970;2024-03-02T02:07:48;4.40;;;3.15;;
67063;SDS011;58476;48.072;11.970;2024-03-02T02:10:13;6.70;;;3.42;;
67063;SDS011;58476;48.072;11.970;2024-03-02T02:12:40;5.78;;;3.70;;
67063;SDS011;58476;48.072;11.970;2024-03-02T02:15:24;5.55;;;3.72;;
67063;SDS011;58476;48.072;11.970;2024-03-02T02:17:50;5.60;;;3.85;;
67063;SDS011;58476;48.072;11.970;2024-03-02T02:20:15;6.65;;;3.88;;
67063;SDS011;58476;48.072;11.970;2024-03-02T02:22:40;5.40;;;3.55;;
67063;SDS011;58476;48.072;11.970;2024-03-02T02:25:20;5.60;;;3.63;;
67063;SDS011;58476;48.072;11.970;2024-03-02T02:27:46;5.50;;;3.65;;
67063;SDS011;58476;48.072;11.970;2024-03-02T02:30:11;5.10;;;3.55;;
67063;SDS011;58476;48.072;11.970;2024-03-02T02:32:37;6.03;;;3.97;;
67063;SDS011;58476;48.072;11.970;2024-03-02T02:35:02;7.00;;;4.20;;
67063;SDS011;58476;48.072;11.970;2024-03-02T02:37:27;5.47;;;3.67;;
67063;SDS011;58476;48.072;11.970;2024-03-02T02:39:53;6.90;;;4.10;;
67063;SDS011;58476;48.072;11.970;2024-03-02T02:42:18;5.38;;;3.78;;
67063;SDS011;58476;48.072;11.970;2024-03-02T02:44:43;5.72;;;3.90;;
67063;SDS011;58476;48.072;11.970;2024-03-02T02:47:09;5.85;;;3.85;;
67063;SDS011;58476;48.072;11.970;2024-03-02T02:49:34;6.28;;;4.20;;
67063;SDS011;58476;48.072;11.970;2024-03-02T02:51:59;5.70;;;4.00;;
67063;SDS011;58476;48.072;11.970;2024-03-02T02:54:25;6.47;;;4.25;;
67063;SDS011;58476;48.072;11.970;2024-03-02T02:56:50;6.40;;;4.13;;
67063;SDS011;58476;48.072;11.970;2024-03-02T02:59:15;6.93;;;4.45;;
67063;SDS011;58476;48.072;11.970;2024-03-02T03:01:40;5.28;;;3.83;;
67063;SDS011;58476;48.072;11.970;2024-03-02T03:04:06;5.53;;;3.85;;
67063;SDS011;58476;48.072;11.970;2024-03-02T03:06:31;6.03;;;3.95;;
67063;SDS011;58476;48.072;11.970;2024-03-02T03:08:56;6.43;;;4.07;;
67063;SDS011;58476;48.072;11.970;2024-03-02T03:11:22;5.55;;;4.07;;
67063;SDS011;58476;48.072;11.970;2024-03-02T03:13:47;5.10;;;3.95;;
67063;SDS011;58476;48.072;11.970;2024-03-02T03:16:12;5.00;;;3.95;;
67063;SDS011;58476;48.072;11.970;2024-03-02T03:18:38;5.75;;;4.20;;
67063;SDS011;58476;48.072;11.970;2024-03-02T03:21:03;5.80;;;4.20;;
67063;SDS011;58476;48.072;11.970;2024-03-02T03:23:28;5.68;;;3.90;;
67063;SDS011;58476;48.072;11.970;2024-03-02T03:25:53;5.03;;;3.75;;
67063;SDS011;58476;48.072;11.970;2024-03-02T03:28:19;5.68;;;4.03;;
67063;SDS011;58476;48.072;11.970;2024-03-02T03:30:44;6.07;;;4.13;;
67063;SDS011;58476;48.072;11.970;2024-03-02T03:33:09;4.80;;;3.60;;
67063;SDS011;58476;48.072;11.970;2024-03-02T03:35:35;5.35;;;4.10;;
67063;SDS011;58476;48.072;11.970;2024-03-02T03:38:01;6.18;;;4.50;;
67063;SDS011;58476;48.072;11.970;2024-03-02T03:40:27;5.57;;;4.10;;
67063;SDS011;58476;48.072;11.970;2024-03-02T03:42:52;5.38;;;3.90;;
67063;SDS011;58476;48.072;11.970;2024-03-02T03:45:17;5.05;;;4.00;;
67063;SDS011;58476;48.072;11.970;2024-03-02T03:47:43;5.32;;;4.20;;
67063;SDS011;58476;48.072;11.970;2024-03-02T03:50:08;6.07;;;4.20;;
67063;SDS011;58476;48.072;11.970;2024-03-02T03:52:34;6.63;;;4.30;;
67063;SDS011;58476;48.072;11.970;2024-03-02T03:54:59;12.60;;;4.70;;
67063;SDS011;58476;48.072;11.970;2024-03-02T03:57:25;7.30;;;4.22;;
67063;SDS011;58476;48.072;11.970;2024-03-02T03:59:51;7.20;;;4.10;;
67063;SDS011;58476;48.072;11.970;2024-03-02T04:02:16;7.85;;;4.68;;
67063;SDS011;58476;48.072;11.970;2024-03-02T04:04:41;9.93;;;4.35;;
67063;SDS011;58476;48.072;11.970;2024-03-02T04:07:06;10.90;;;4.10;;
67063;SDS011;58476;48.072;11.970;2024-03-02T04:09:32;7.38;;;4.20;;
67063;SDS011;58476;48.072;11.970;2024-03-02T04:11:57;7.70;;;4.28;;
67063;SDS011;58476;48.072;11.970;2024-03-02T04:14:22;10.00;;;4.53;;
67063;SDS011;58476;48.072;11.970;2024-03-02T04:16:48;12.63;;;4.38;;
67063;SDS011;58476;48.072;11.970;2024-03-02T04:19:13;8.77;;;4.68;;
67063;SDS011;58476;48.072;11.970;2024-03-02T04:21:38;8.77;;;4.60;;
67063;SDS011;58476;48.072;11.970;2024-03-02T04:24:04;10.25;;;4.85;;
67063;SDS011;58476;48.072;11.970;2024-03-02T04:26:30;12.32;;;4.43;;
67063;SDS011;58476;48.072;11.970;2024-03-02T04:28:55;10.63;;;4.95;;
67063;SDS011;58476;48.072;11.970;2024-03-02T04:31:20;10.68;;;4.60;;
67063;SDS011;58476;48.072;11.970;2024-03-02T04:33:46;8.18;;;4.85;;
67063;SDS011;58476;48.072;11.970;2024-03-02T04:36:11;12.02;;;5.10;;
67063;SDS011;58476;48.072;11.970;2024-03-02T04:38:37;15.35;;;5.28;;
67063;SDS011;58476;48.072;11.970;2024-03-02T04:41:04;14.18;;;4.82;;
67063;SDS011;58476;48.072;11.970;2024-03-02T04:43:30;10.00;;;4.55;;
67063;SDS011;58476;48.072;11.970;2024-03-02T04:45:55;10.32;;;4.88;;
67063;SDS011;58476;48.072;11.970;2024-03-02T04:48:20;9.93;;;4.82;;
67063;SDS011;58476;48.072;11.970;2024-03-02T04:50:46;7.80;;;5.57;;
67063;SDS011;58476;48.072;11.970;2024-03-02T04:53:11;8.70;;;4.88;;
67063;SDS011;58476;48.072;11.970;2024-03-02T04:55:36;10.95;;;5.30;;
67063;SDS011;58476;48.072;11.970;2024-03-02T04:58:02;10.85;;;5.10;;
67063;SDS011;58476;48.072;11.970;2024-03-02T05:00:27;8.43;;;4.50;;
67063;SDS011;58476;48.072;11.970;2024-03-02T05:02:52;8.43;;;5.18;;
67063;SDS011;58476;48.072;11.970;2024-03-02T05:05:18;10.35;;;4.80;;
67063;SDS011;58476;48.072;11.970;2024-03-02T05:07:43;8.85;;;5.20;;
67063;SDS011;58476;48.072;11.970;2024-03-02T05:10:08;10.35;;;4.90;;
67063;SDS011;58476;48.072;11.970;2024-03-02T05:12:33;10.48;;;5.15;;
67063;SDS011;58476;48.072;11.970;2024-03-02T05:14:59;9.35;;;4.75;;
67063;SDS011;58476;48.072;11.970;2024-03-02T05:17:24;10.00;;;4.75;;
67063;SDS011;58476;48.072;11.970;2024-03-02T05:19:49;8.10;;;5.05;;
67063;SDS011;58476;48.072;11.970;2024-03-02T05:22:15;9.95;;;4.93;;
67063;SDS011;58476;48.072;11.970;2024-03-02T05:24:40;9.70;;;4.75;;
67063;SDS011;58476;48.072;11.970;2024-03-02T05:27:05;7.40;;;4.68;;
67063;SDS011;58476;48.072;11.970;2024-03-02T05:29:31;7.47;;;4.95;;
67063;SDS011;58476;48.072;11.970;2024-03-02T05:31:56;10.27;;;5.72;;
67063;SDS011;58476;48.072;11.970;2024-03-02T05:34:21;7.57;;;4.43;;
67063;SDS011;58476;48.072;11.970;2024-03-02T05:36:46;11.50;;;5.00;;
67063;SDS011;58476;48.072;11.970;2024-03-02T05:39:12;8.95;;;4.72;;
67063;SDS011;58476;48.072;11.970;2024-03-02T05:41:37;8.45;;;4.80;;
67063;SDS011;58476;48.072;11.970;2024-03-02T05:44:03;8.48;;;4.85;;
67063;SDS011;58476;48.072;11.970;2024-03-02T05:46:28;7.65;;;5.15;;
67063;SDS011;58476;48.072;11.970;2024-03-02T05:48:54;16.15;;;5.35;;
67063;SDS011;58476;48.072;11.970;2024-03-02T05:51:19;10.80;;;5.78;;
67063;SDS011;58476;48.072;11.970;2024-03-02T05:53:44;10.98;;;5.28;;
67063;SDS011;58476;48.072;11.970;2024-03-02T05:56:10;19.60;;;6.30;;
67063;SDS011;58476;48.072;11.970;2024-03-02T05:58:35;20.83;;;5.43;;
67063;SDS011;58476;48.072;11.970;2024-03-02T06:01:00;10.98;;;5.88;;
67063;SDS011;58476;48.072;11.970;2024-03-02T06:03:26;11.82;;;5.28;;
67063;SDS011;58476;48.072;11.970;2024-03-02T06:05:51;11.73;;;5.25;;
67063;SDS011;58476;48.072;11.970;2024-03-02T06:08:16;11.10;;;5.40;;
67063;SDS011;58476;48.072;11.970;2024-03-02T06:10:42;10.00;;;5.80;;
67063;SDS011;58476;48.072;11.970;2024-03-02T06:13:08;14.68;;;5.97;;
67063;SDS011;58476;48.072;11.970;2024-03-02T06:15:33;11.80;;;5.75;;
67063;SDS011;58476;48.072;11.970;2024-03-02T06:17:58;15.25;;;5.82;;
67063;SDS011;58476;48.072;11.970;2024-03-02T06:20:24;13.82;;;5.80;;
67063;SDS011;58476;48.072;11.970;2024-03-02T06:22:49;15.25;;;6.00;;
67063;SDS011;58476;48.072;11.970;2024-03-02T06:25:14;10.30;;;5.10;;
67063;SDS011;58476;48.072;11.970;2024-03-02T06:27:40;16.33;;;5.63;;
67063;SDS011;58476;48.072;11.970;2024-03-02T06:30:05;13.40;;;5.43;;
67063;SDS011;58476;48.072;11.970;2024-03-02T06:32:30;12.82;;;5.53;;
67063;SDS011;58476;48.072;11.970;2024-03-02T06:34:56;14.07;;;5.57;;
67063;SDS011;58476;48.072;11.970;2024-03-02T06:37:21;13.30;;;6.38;;
67063;SDS011;58476;48.072;11.970;2024-03-02T06:39:46;12.48;;;5.72;;
67063;SDS011;58476;48.072;11.970;2024-03-02T06:42:12;12.35;;;5.68;;
67063;SDS011;58476;48.072;11.970;2024-03-02T06:44:37;10.18;;;5.07;;
67063;SDS011;58476;48.072;11.970;2024-03-02T06:47:02;16.23;;;5.72;;
67063;SDS011;58476;48.072;11.970;2024-03-02T06:49:28;11.75;;;5.85;;
67063;SDS011;58476;48.072;11.970;2024-03-02T06:51:53;17.45;;;6.20;;
67063;SDS011;58476;48.072;11.970;2024-03-02T06:54:18;21.92;;;6.50;;
67063;SDS011;58476;48.072;11.970;2024-03-02T06:56:44;13.25;;;5.82;;
67063;SDS011;58476;48.072;11.970;2024-03-02T06:59:09;14.55;;;5.97;;
67063;SDS011;58476;48.072;11.970;2024-03-02T07:01:34;12.10;;;5.60;;
67063;SDS011;58476;48.072;11.970;2024-03-02T07:04:00;10.00;;;5.72;;
67063;SDS011;58476;48.072;11.970;2024-03-02T07:06:25;15.07;;;5.65;;
67063;SDS011;58476;48.072;11.970;2024-03-02T07:08:50;15.65;;;5.50;;
67063;SDS011;58476;48.072;11.970;2024-03-02T07:11:15;17.63;;;6.13;;
67063;SDS011;58476;48.072;11.970;2024-03-02T07:13:41;13.05;;;6.57;;
67063;SDS011;58476;48.072;11.970;2024-03-02T07:16:06;15.15;;;5.82;;
67063;SDS011;58476;48.072;11.970;2024-03-02T07:18:32;13.60;;;5.75;;
67063;SDS011;58476;48.072;11.970;2024-03-02T07:20:57;16.88;;;6.97;;
67063;SDS011;58476;48.072;11.970;2024-03-02T07:23:22;12.73;;;5.80;;
67063;SDS011;58476;48.072;11.970;2024-03-02T07:25:48;13.48;;;5.63;;
67063;SDS011;58476;48.072;11.970;2024-03-02T07:28:13;14.40;;;6.10;;
67063;SDS011;58476;48.072;11.970;2024-03-02T07:30:38;14.23;;;7.03;;
67063;SDS011;58476;48.072;11.970;2024-03-02T07:33:04;19.08;;;7.18;;
67063;SDS011;58476;48.072;11.970;2024-03-02T07:35:29;20.55;;;6.75;;
67063;SDS011;58476;48.072;11.970;2024-03-02T07:37:55;14.68;;;6.63;;
67063;SDS011;58476;48.072;11.970;2024-03-02T07:40:20;18.35;;;6.25;;
67063;SDS011;58476;48.072;11.970;2024-03-02T07:42:46;22.25;;;6.82;;
67063;SDS011;58476;48.072;11.970;2024-03-02T07:45:11;21.13;;;6.07;;
67063;SDS011;58476;48.072;11.970;2024-03-02T07:47:36;19.60;;;6.53;;
67063;SDS011;58476;48.072;11.970;2024-03-02T07:50:02;25.80;;;6.38;;
67063;SDS011;58476;48.072;11.970;2024-03-02T07:52:28;16.85;;;7.32;;
67063;SDS011;58476;48.072;11.970;2024-03-02T07:54:53;13.43;;;6.72;;
67063;SDS011;58476;48.072;11.970;2024-03-02T07:57:19;17.00;;;6.57;;
67063;SDS011;58476;48.072;11.970;2024-03-02T07:59:44;20.48;;;6.35;;
67063;SDS011;58476;48.072;11.970;2024-03-02T08:02:09;17.35;;;7.25;;
67063;SDS011;58476;48.072;11.970;2024-03-02T08:04:35;14.80;;;6.78;;
67063;SDS011;58476;48.072;11.970;2024-03-02T08:07:00;18.67;;;8.15;;
67063;SDS011;58476;48.072;11.970;2024-03-02T08:09:25;19.10;;;7.03;;
67063;SDS011;58476;48.072;11.970;2024-03-02T08:11:51;17.80;;;6.97;;
67063;SDS011;58476;48.072;11.970;2024-03-02T08:14:16;21.08;;;6.35;;
67063;SDS011;58476;48.072;11.970;2024-03-02T08:16:41;29.20;;;7.25;;
67063;SDS011;58476;48.072;11.970;2024-03-02T08:19:07;22.85;;;6.70;;
67063;SDS011;58476;48.072;11.970;2024-03-02T08:21:32;13.95;;;6.57;;
67063;SDS011;58476;48.072;11.970;2024-03-02T08:23:58;19.45;;;7.15;;
67063;SDS011;58476;48.072;11.970;2024-03-02T08:26:23;13.43;;;6.57;;
67063;SDS011;58476;48.072;11.970;2024-03-02T08:28:49;13.75;;;5.95;;
67063;SDS011;58476;48.072;11.970;2024-03-02T08:31:14;19.80;;;6.63;;
67063;SDS011;58476;48.072;11.970;2024-03-02T08:33:39;17.80;;;6.40;;
67063;SDS011;58476;48.072;11.970;2024-03-02T08:36:05;25.77;;;6.78;;
67063;SDS011;58476;48.072;11.970;2024-03-02T08:38:30;28.70;;;6.85;;
67063;SDS011;58476;48.072;11.970;2024-03-02T08:40:56;19.85;;;6.75;;
67063;SDS011;58476;48.072;11.970;2024-03-02T08:43:21;21.85;;;6.78;;
67063;SDS011;58476;48.072;11.970;2024-03-02T08:45:46;25.95;;;7.05;;
67063;SDS011;58476;48.072;11.970;2024-03-02T08:48:12;28.38;;;6.75;;
67063;SDS011;58476;48.072;11.970;2024-03-02T08:50:37;21.80;;;7.10;;
67063;SDS011;58476;48.072;11.970;2024-03-02T08:53:03;26.55;;;7.18;;
67063;SDS011;58476;48.072;11.970;2024-03-02T08:55:28;23.13;;;6.85;;
67063;SDS011;58476;48.072;11.970;2024-03-02T08:57:54;25.23;;;7.45;;
67063;SDS011;58476;48.072;11.970;2024-03-02T09:00:20;23.75;;;7.32;;
67063;SDS011;58476;48.072;11.970;2024-03-02T09:02:45;23.02;;;6.57;;
67063;SDS011;58476;48.072;11.970;2024-03-02T09:05:11;35.40;;;8.18;;
67063;SDS011;58476;48.072;11.970;2024-03-02T09:07:37;23.52;;;6.93;;
67063;SDS011;58476;48.072;11.970;2024-03-02T09:10:02;29.67;;;7.18;;
67063;SDS011;58476;48.072;11.970;2024-03-02T09:12:27;23.55;;;7.05;;
67063;SDS011;58476;48.072;11.970;2024-03-02T09:14:53;27.20;;;7.43;;
67063;SDS011;58476;48.072;11.970;2024-03-02T09:17:18;22.25;;;6.97;;
67063;SDS011;58476;48.072;11.970;2024-03-02T09:19:43;26.08;;;6.93;;
67063;SDS011;58476;48.072;11.970;2024-03-02T09:22:09;31.00;;;7.45;;
67063;SDS011;58476;48.072;11.970;2024-03-02T09:24:34;29.55;;;7.70;;
67063;SDS011;58476;48.072;11.970;2024-03-02T09:26:59;27.15;;;6.82;;
67063;SDS011;58476;48.072;11.970;2024-03-02T09:29:25;22.42;;;6.55;;
67063;SDS011;58476;48.072;11.970;2024-03-02T09:31:50;25.50;;;8.50;;
67063;SDS011;58476;48.072;11.970;2024-03-02T09:34:16;24.02;;;7.05;;
67063;SDS011;58476;48.072;11.970;2024-03-02T09:36:41;26.88;;;7.20;;
67063;SDS011;58476;48.072;11.970;2024-03-02T09:39:07;21.55;;;7.10;;
67063;SDS011;58476;48.072;11.970;2024-03-02T09:41:33;21.65;;;7.70;;
67063;SDS011;58476;48.072;11.970;2024-03-02T09:43:58;18.73;;;6.72;;
67063;SDS011;58476;48.072;11.970;2024-03-02T09:46:24;34.70;;;7.00;;
67063;SDS011;58476;48.072;11.970;2024-03-02T09:48:50;23.58;;;7.53;;
67063;SDS011;58476;48.072;11.970;2024-03-02T09:51:15;20.98;;;6.25;;
67063;SDS011;58476;48.072;11.970;2024-03-02T09:53:41;21.48;;;7.00;;
67063;SDS011;58476;48.072;11.970;2024-03-02T09:56:07;19.65;;;6.38;;
67063;SDS011;58476;48.072;11.970;2024-03-02T09:58:32;20.98;;;7.28;;
67063;SDS011;58476;48.072;11.970;2024-03-02T10:00:58;17.33;;;6.05;;
67063;SDS011;58476;48.072;11.970;2024-03-02T10:03:23;22.00;;;6.75;;
67063;SDS011;58476;48.072;11.970;2024-03-02T10:05:48;17.95;;;5.95;;
67063;SDS011;58476;48.072;11.970;2024-03-02T10:08:14;16.73;;;5.53;;
67063;SDS011;58476;48.072;11.970;2024-03-02T10:10:40;20.05;;;6.63;;
67063;SDS011;58476;48.072;11.970;2024-03-02T10:13:09;17.25;;;6.20;;
67063;SDS011;58476;48.072;11.970;2024-03-02T10:15:35;14.63;;;6.53;;
67063;SDS011;58476;48.072;11.970;2024-03-02T10:18:02;14.25;;;5.80;;
67063;SDS011;58476;48.072;11.970;2024-03-02T10:20:28;15.32;;;6.25;;
67063;SDS011;58476;48.072;11.970;2024-03-02T10:22:53;13.93;;;6.25;;
67063;SDS011;58476;48.072;11.970;2024-03-02T10:25:31;19.77;;;6.90;;
67063;SDS011;58476;48.072;11.970;2024-03-02T10:27:58;15.13;;;6.38;;
67063;SDS011;58476;48.072;11.970;2024-03-02T10:30:24;14.05;;;6.50;;
67063;SDS011;58476;48.072;11.970;2024-03-02T10:32:49;13.40;;;6.18;;
67063;SDS011;58476;48.072;11.970;2024-03-02T10:35:15;14.38;;;6.18;;
67063;SDS011;58476;48.072;11.970;2024-03-02T10:37:41;15.55;;;7.20;;
67063;SDS011;58476;48.072;11.970;2024-03-02T10:40:07;12.63;;;6.32;;
67063;SDS011;58476;48.072;11.970;2024-03-02T10:42:33;13.18;;;6.05;;
67063;SDS011;58476;48.072;11.970;2024-03-02T10:45:00;18.27;;;6.45;;
67063;SDS011;58476;48.072;11.970;2024-03-02T10:47:26;14.88;;;6.65;;
67063;SDS011;58476;48.072;11.970;2024-03-02T10:49:53;13.43;;;6.30;;
67063;SDS011;58476;48.072;11.970;2024-03-02T10:52:20;12.57;;;6.07;;
67063;SDS011;58476;48.072;11.970;2024-03-02T10:54:46;13.18;;;6.40;;
67063;SDS011;58476;48.072;11.970;2024-03-02T10:57:11;12.10;;;6.18;;
67063;SDS011;58476;48.072;11.970;2024-03-02T10:59:43;10.60;;;6.30;;
67063;SDS011;58476;48.072;11.970;2024-03-02T11:02:16;13.18;;;6.43;;
67063;SDS011;58476;48.072;11.970;2024-03-02T11:04:42;14.63;;;6.88;;
67063;SDS011;58476;48.072;11.970;2024-03-02T11:07:11;13.88;;;6.07;;
67063;SDS011;58476;48.072;11.970;2024-03-02T11:09:41;12.95;;;5.95;;
67063;SDS011;58476;48.072;11.970;2024-03-02T11:12:12;14.20;;;5.40;;
67063;SDS011;58476;48.072;11.970;2024-03-02T11:14:41;12.18;;;6.50;;
67063;SDS011;58476;48.072;11.970;2024-03-02T11:17:07;14.75;;;6.18;;
67063;SDS011;58476;48.072;11.970;2024-03-02T11:19:32;12.07;;;5.68;;
67063;SDS011;58476;48.072;11.970;2024-03-02T11:21:59;12.38;;;5.93;;
67063;SDS011;58476;48.072;11.970;2024-03-02T11:26:50;10.50;;;5.85;;
67063;SDS011;58476;48.072;11.970;2024-03-02T11:32:00;14.13;;;5.63;;
67063;SDS011;58476;48.072;11.970;2024-03-02T11:34:36;13.57;;;5.65;;
67063;SDS011;58476;48.072;11.970;2024-03-02T11:37:01;10.70;;;5.55;;
67063;SDS011;58476;48.072;11.970;2024-03-02T11:39:29;10.43;;;5.55;;
67063;SDS011;58476;48.072;11.970;2024-03-02T11:41:55;14.18;;;6.30;;
67063;SDS011;58476;48.072;11.970;2024-03-02T11:44:21;13.25;;;6.47;;
67063;SDS011;58476;48.072;11.970;2024-03-02T11:46:51;11.98;;;5.68;;
67063;SDS011;58476;48.072;11.970;2024-03-02T11:49:20;13.88;;;5.82;;
67063;SDS011;58476;48.072;11.970;2024-03-02T11:52:01;19.55;;;6.47;;
67063;SDS011;58476;48.072;11.970;2024-03-02T11:54:27;12.10;;;5.72;;
67063;SDS011;58476;48.072;11.970;2024-03-02T11:56:55;12.45;;;5.70;;
67063;SDS011;58476;48.072;11.970;2024-03-02T11:59:21;11.02;;;6.18;;
67063;SDS011;58476;48.072;11.970;2024-03-02T12:01:47;9.18;;;5.95;;
67063;SDS011;58476;48.072;11.970;2024-03-02T12:04:13;12.38;;;5.80;;
67063;SDS011;58476;48.072;11.970;2024-03-02T12:06:38;14.85;;;6.00;;
67063;SDS011;58476;48.072;11.970;2024-03-02T12:09:04;10.85;;;5.80;;
67063;SDS011;58476;48.072;11.970;2024-03-02T12:11:30;14.23;;;5.85;;
67063;SDS011;58476;48.072;11.970;2024-03-02T12:13:55;10.55;;;5.75;;
67063;SDS011;58476;48.072;11.970;2024-03-02T12:16:26;11.93;;;5.82;;
67063;SDS011;58476;48.072;11.970;2024-03-02T12:18:51;10.45;;;5.40;;
67063;SDS011;58476;48.072;11.970;2024-03-02T12:21:16;15.00;;;5.68;;
67063;SDS011;58476;48.072;11.970;2024-03-02T12:23:42;14.65;;;6.15;;
67063;SDS011;58476;48.072;11.970;2024-03-02T12:26:07;18.98;;;5.90;;
67063;SDS011;58476;48.072;11.970;2024-03-02T12:28:33;9.93;;;5.95;;
67063;SDS011;58476;48.072;11.970;2024-03-02T12:30:59;12.93;;;6.43;;
67063;SDS011;58476;48.072;11.970;2024-03-02T12:33:24;12.73;;;6.40;;
67063;SDS011;58476;48.072;11.970;2024-03-02T12:35:49;10.80;;;6.35;;
67063;SDS011;58476;48.072;11.970;2024-03-02T12:38:15;12.55;;;6.20;;
67063;SDS011;58476;48.072;11.970;2024-03-02T12:40:40;12.18;;;6.45;;
67063;SDS011;58476;48.072;11.970;2024-03-02T12:43:06;10.43;;;6.43;;
67063;SDS011;58476;48.072;11.970;2024-03-02T12:45:31;11.75;;;6.57;;
67063;SDS011;58476;48.072;11.970;2024-03-02T12:47:56;11.77;;;6.20;;
67063;SDS011;58476;48.072;11.970;2024-03-02T12:50:22;9.98;;;6.53;;
67063;SDS011;58476;48.072;11.970;2024-03-02T12:52:51;13.25;;;6.60;;
67063;SDS011;58476;48.072;11.970;2024-03-02T12:55:19;13.13;;;6.53;;
67063;SDS011;58476;48.072;11.970;2024-03-02T12:57:49;12.15;;;6.05;;
67063;SDS011;58476;48.072;11.970;2024-03-02T13:00:17;11.40;;;6.28;;
67063;SDS011;58476;48.072;11.970;2024-03-02T13:02:45;13.70;;;5.97;;
67063;SDS011;58476;48.072;11.970;2024-03-02T13:05:11;15.13;;;6.53;;
67063;SDS011;58476;48.072;11.970;2024-03-02T13:07:37;15.57;;;7.28;;
67063;SDS011;58476;48.072;11.970;2024-03-02T13:10:03;13.45;;;6.80;;
67063;SDS011;58476;48.072;11.970;2024-03-02T13:12:29;12.30;;;6.45;;
67063;SDS011;58476;48.072;11.970;2024-03-02T13:14:57;11.20;;;6.25;;
67063;SDS011;58476;48.072;11.970;2024-03-02T13:17:23;13.95;;;7.10;;
67063;SDS011;58476;48.072;11.970;2024-03-02T13:19:55;12.77;;;6.70;;
67063;SDS011;58476;48.072;11.970;2024-03-02T13:22:21;18.52;;;7.03;;
67063;SDS011;58476;48.072;11.970;2024-03-02T13:24:47;16.58;;;7.20;;
67063;SDS011;58476;48.072;11.970;2024-03-02T13:27:13;12.45;;;7.22;;
67063;SDS011;58476;48.072;11.970;2024-03-02T13:29:38;19.67;;;6.70;;
67063;SDS011;58476;48.072;11.970;2024-03-02T13:32:04;18.45;;;6.85;;
67063;SDS011;58476;48.072;11.970;2024-03-02T13:34:30;19.75;;;7.00;;
67063;SDS011;58476;48.072;11.970;2024-03-02T13:36:55;21.08;;;6.65;;
67063;SDS011;58476;48.072;11.970;2024-03-02T13:39:20;19.92;;;7.68;;
67063;SDS011;58476;48.072;11.970;2024-03-02T13:41:45;15.95;;;7.03;;
67063;SDS011;58476;48.072;11.970;2024-03-02T13:44:11;14.73;;;7.55;;
67063;SDS011;58476;48.072;11.970;2024-03-02T13:46:36;15.95;;;7.63;;
67063;SDS011;58476;48.072;11.970;2024-03-02T13:49:01;20.77;;;6.95;;
67063;SDS011;58476;48.072;11.970;2024-03-02T13:51:27;20.35;;;6.93;;
67063;SDS011;58476;48.072;11.970;2024-03-02T13:53:52;15.02;;;6.85;;
67063;SDS011;58476;48.072;11.970;2024-03-02T13:56:18;17.20;;;7.05;;
67063;SDS011;58476;48.072;11.970;2024-03-02T13:58:43;16.02;;;7.22;;
67063;SDS011;58476;48.072;11.970;2024-03-02T14:01:09;22.27;;;7.40;;
67063;SDS011;58476;48.072;11.970;2024-03-02T14:03:34;18.20;;;6.85;;
67063;SDS011;58476;48.072;11.970;2024-03-02T14:06:00;17.95;;;7.30;;
67063;SDS011;58476;48.072;11.970;2024-03-02T14:08:25;16.52;;;7.00;;
67063;SDS011;58476;48.072;11.970;2024-03-02T14:10:51;15.68;;;7.07;;
67063;SDS011;58476;48.072;11.970;2024-03-02T14:13:16;15.40;;;6.75;;
67063;SDS011;58476;48.072;11.970;2024-03-02T14:15:41;23.38;;;7.00;;
67063;SDS011;58476;48.072;11.970;2024-03-02T14:18:07;21.92;;;7.70;;
67063;SDS011;58476;48.072;11.970;2024-03-02T14:20:32;18.00;;;7.53;;
67063;SDS011;58476;48.072;11.970;2024-03-02T14:22:58;15.05;;;6.85;;
67063;SDS011;58476;48.072;11.970;2024-03-02T14:25:23;12.05;;;6.25;;
67063;SDS011;58476;48.072;11.970;2024-03-02T14:27:49;23.50;;;7.00;;